createdAt,value
2018-06-08T00:01:46.815Z,47
2018-06-08T00:06:45.132Z,47
2018-06-08T00:11:43.297Z,47
2018-06-08T00:16:41.551Z,47
2018-06-08T00:21:39.819Z,47
2018-06-08T00:26:37.610Z,46.9
2018-06-08T00:31:35.750Z,46.9
2018-06-08T00:36:34.155Z,47
2018-06-08T00:41:31.974Z,47
2018-06-08T00:46:30.200Z,47
2018-06-08T00:51:28.477Z,47
2018-06-08T00:56:26.095Z,47
2018-06-08T01:01:24.473Z,47
2018-06-08T01:06:22.633Z,47
2018-06-08T01:11:20.995Z,47
2018-06-08T01:16:19.291Z,47
2018-06-08T01:21:17.562Z,47
2018-06-08T01:26:15.792Z,47.1
2018-06-08T01:31:14.039Z,47.1
2018-06-08T01:36:12.139Z,47.1
2018-06-08T01:41:10.084Z,47.1
2018-06-08T01:46:08.301Z,47.1
2018-06-08T01:51:06.610Z,47.1
2018-06-08T01:56:04.911Z,47.2
2018-06-08T02:01:02.904Z,47.1
2018-06-08T02:06:01.209Z,47.1
2018-06-08T02:10:59.430Z,47.1
2018-06-08T02:15:57.517Z,47.1
2018-06-08T02:20:55.855Z,47.2
2018-06-08T02:25:54.046Z,47.2
2018-06-08T02:30:51.637Z,47.2
2018-06-08T02:35:50.106Z,47.2
2018-06-08T02:40:48.160Z,47.2
2018-06-08T02:45:46.505Z,47.2
2018-06-08T02:50:44.522Z,47.2
2018-06-08T02:55:42.771Z,47.2
2018-06-08T03:00:40.848Z,47.2
2018-06-08T03:05:39.088Z,47.2
2018-06-08T03:10:37.230Z,47.2
2018-06-08T03:15:35.427Z,47.3
2018-06-08T03:20:33.405Z,47.3
2018-06-08T03:25:31.485Z,47.3
2018-06-08T03:30:29.829Z,47.4
2018-06-08T03:35:28.031Z,47.4
2018-06-08T03:40:26.153Z,47.4
2018-06-08T03:45:24.293Z,47.4
2018-06-08T03:50:22.316Z,47.4
2018-06-08T03:55:20.673Z,47.3
2018-06-08T04:00:18.965Z,47.4
2018-06-08T04:05:17.191Z,47.4
2018-06-08T04:10:15.603Z,47.5
2018-06-08T04:15:13.855Z,47.5
2018-06-08T04:20:12.188Z,47.6
2018-06-08T04:25:10.522Z,47.6
2018-06-08T04:30:08.709Z,47.7
2018-06-08T04:35:06.890Z,47.7
2018-06-08T04:40:05.238Z,47.7
2018-06-08T04:45:03.557Z,47.7
2018-06-08T04:50:01.744Z,47.7
2018-06-08T04:54:59.989Z,47.7
2018-06-08T04:59:58.204Z,47.8
2018-06-08T05:04:56.655Z,47.8
2018-06-08T05:09:54.759Z,47.8
2018-06-08T05:14:53.095Z,47.9
2018-06-08T05:19:51.234Z,47.9
2018-06-08T05:24:49.421Z,47.9
2018-06-08T05:29:47.650Z,48
2018-06-08T05:34:46.012Z,48.1
2018-06-08T05:39:44.411Z,48.2
2018-06-08T05:44:42.773Z,48.2
2018-06-08T05:49:41.010Z,48.3
2018-06-08T05:54:39.182Z,48.4
2018-06-08T05:59:37.516Z,48.5
2018-06-08T06:04:35.499Z,48.5
2018-06-08T06:09:33.109Z,48.6
2018-06-08T06:14:31.144Z,48.7
2018-06-08T06:19:29.429Z,48.8
2018-06-08T06:24:27.494Z,48.9
2018-06-08T06:29:25.745Z,48.9
2018-06-08T06:34:24.019Z,48.9
2018-06-08T06:39:22.328Z,49
2018-06-08T06:44:20.558Z,49
2018-06-08T06:49:18.829Z,49.1
2018-06-08T06:54:17.244Z,49.2
2018-06-08T06:59:15.542Z,49.3
2018-06-08T07:04:13.947Z,49.4
2018-06-08T07:09:12.376Z,49.4
2018-06-08T07:14:10.866Z,49.5
2018-06-08T07:19:09.399Z,49.7
2018-06-08T07:24:07.509Z,48.9
2018-06-08T07:29:05.807Z,49.9
2018-06-08T07:34:04.122Z,50
2018-06-08T07:39:02.545Z,50.1
2018-06-08T07:44:00.734Z,50.2
2018-06-08T07:48:58.678Z,50.2
2018-06-08T07:53:56.841Z,50.4
2018-06-08T07:58:55.221Z,50.5
2018-06-08T08:03:53.647Z,50.5
2018-06-08T08:08:52.173Z,50.5
2018-06-08T08:13:49.872Z,50.5
2018-06-08T08:18:48.061Z,50.6
2018-06-08T08:23:46.402Z,50.7
2018-06-08T08:28:44.913Z,50.7
2018-06-08T08:33:42.894Z,50.7
2018-06-08T08:38:41.165Z,50.8
2018-06-08T08:43:39.720Z,50.9
2018-06-08T08:48:37.940Z,50.9
2018-06-08T08:53:36.109Z,51
2018-06-08T08:58:34.431Z,51
2018-06-08T09:03:32.683Z,51
2018-06-08T09:08:30.680Z,51.1
2018-06-08T09:13:28.962Z,51
2018-06-08T09:18:27.050Z,51.1
2018-06-08T09:23:25.412Z,51.1
2018-06-08T09:28:23.723Z,51.1
2018-06-08T09:33:21.499Z,51.2
2018-06-08T09:38:19.207Z,51.1
2018-06-08T09:43:17.611Z,51.1
2018-06-08T09:48:16.041Z,51.1
2018-06-08T09:53:14.308Z,51.1
2018-06-08T09:58:12.385Z,51.1
2018-06-08T10:03:10.741Z,51.7
2018-06-08T10:08:09.148Z,52
2018-06-08T10:13:08.430Z,52.3
2018-06-08T10:18:06.840Z,52.2
2018-06-08T10:23:05.216Z,52
2018-06-08T10:28:03.514Z,51.1
2018-06-08T10:33:01.307Z,50.9
2018-06-08T10:37:59.902Z,50.5
2018-06-08T10:42:58.132Z,50.5
2018-06-08T10:47:56.551Z,50.1
2018-06-08T10:52:54.983Z,50.2
2018-06-08T10:57:53.429Z,50
2018-06-08T11:02:52.249Z,50
2018-06-08T11:07:50.590Z,49.1
2018-06-08T11:12:49.075Z,48.8
2018-06-08T11:17:47.328Z,48.4
2018-06-08T11:22:45.986Z,48.4
2018-06-08T11:27:44.723Z,47.7
2018-06-08T11:32:43.036Z,47.5
2018-06-08T11:37:41.305Z,47.7
2018-06-08T11:42:39.974Z,47.2
2018-06-08T11:47:38.565Z,47.1
2018-06-08T11:52:37.006Z,46.8
2018-06-08T11:57:35.226Z,46.5
2018-06-08T12:02:33.810Z,46.4
2018-06-08T12:07:32.522Z,46.5
2018-06-08T12:12:31.112Z,46.1
2018-06-08T12:17:29.153Z,46.1
2018-06-08T12:22:27.519Z,46
2018-06-08T12:27:26.166Z,45.5
2018-06-08T12:37:28.200Z,45.3
2018-06-08T12:42:27.055Z,45.3
2018-06-08T12:47:25.882Z,45.1
2018-06-08T12:52:24.222Z,45.1
2018-06-08T12:57:22.661Z,44.6
2018-06-08T13:02:21.238Z,44.7
2018-06-08T13:07:20.384Z,44.3
2018-06-08T13:12:19.128Z,44.2
2018-06-08T13:17:17.753Z,44.6
2018-06-08T13:22:16.444Z,44.3
2018-06-08T13:27:14.137Z,43.9
2018-06-08T13:32:12.246Z,43.5
2018-06-08T13:37:10.713Z,43.2
2018-06-08T13:42:08.731Z,43.2
2018-06-08T13:47:07.352Z,42.9
2018-06-08T13:52:05.921Z,42.9
2018-06-08T13:57:04.290Z,43
2018-06-08T14:02:03.095Z,43
2018-06-08T14:07:01.565Z,42.5
2018-06-08T14:12:00.190Z,42.3
2018-06-08T14:16:58.573Z,42.5
2018-06-08T14:21:56.797Z,42.7
2018-06-08T14:26:55.073Z,42.6
2018-06-08T14:31:53.370Z,42.3
2018-06-08T14:36:51.609Z,41.9
2018-06-08T14:41:49.991Z,41.6
2018-06-08T14:46:48.139Z,41.6
2018-06-08T14:51:46.389Z,41.6
2018-06-08T14:56:44.946Z,41.4
2018-06-08T15:01:43.353Z,41.2
2018-06-08T15:06:42.009Z,41.3
2018-06-08T15:11:40.613Z,41.3
2018-06-08T15:16:38.602Z,41.2
2018-06-08T15:21:37.364Z,40.9
2018-06-08T15:26:35.762Z,40.3
2018-06-08T15:31:34.370Z,39.9
2018-06-08T15:36:32.625Z,40
2018-06-08T15:41:31.210Z,39.9
2018-06-08T15:46:29.528Z,39.7
2018-06-08T15:51:27.729Z,39.6
2018-06-08T15:56:26.095Z,39.5
2018-06-08T16:01:24.453Z,39.6
2018-06-08T16:06:22.613Z,40
2018-06-08T16:11:20.904Z,40.2
2018-06-08T16:16:18.545Z,40.4
2018-06-08T16:21:16.521Z,40.7
2018-06-08T16:26:14.924Z,40.8
2018-06-08T16:31:13.450Z,40.9
2018-06-08T16:36:12.038Z,41.1
2018-06-08T16:41:10.404Z,41.2
2018-06-08T16:46:08.675Z,41.1
2018-06-08T16:51:06.874Z,41
2018-06-08T16:56:05.363Z,41.1
2018-06-08T17:01:03.742Z,40.8
2018-06-08T17:06:01.922Z,40.8
2018-06-08T17:10:59.675Z,40.7
2018-06-08T17:15:57.879Z,40.6
2018-06-08T17:20:56.357Z,40.8
2018-06-08T17:25:54.887Z,41.2
2018-06-08T17:30:53.430Z,41.2
2018-06-08T17:35:51.694Z,41.2
2018-06-08T17:40:50.143Z,41.3
2018-06-08T17:45:48.719Z,41.2
2018-06-08T17:50:47.151Z,41.2
2018-06-08T17:55:45.488Z,41.2
2018-06-08T18:00:43.757Z,41.2
2018-06-08T18:05:42.235Z,41.1
2018-06-08T18:10:40.709Z,41.5
2018-06-08T18:15:39.245Z,41.7
2018-06-08T18:20:37.432Z,42.1
2018-06-08T18:25:35.764Z,42.5
2018-06-08T18:30:34.541Z,42.8
2018-06-08T18:35:32.399Z,43
2018-06-08T18:40:30.880Z,43.4
2018-06-08T18:45:28.914Z,43.2
2018-06-08T18:50:27.194Z,43.6
2018-06-08T18:55:25.443Z,43.9
2018-06-08T19:00:23.595Z,43.3
2018-06-08T19:05:22.131Z,43.5
2018-06-08T19:10:20.522Z,43.5
2018-06-08T19:15:19.291Z,43.7
2018-06-08T19:20:17.969Z,43.4
2018-06-08T19:25:15.911Z,43.3
2018-06-08T19:30:14.272Z,43.3
2018-06-08T19:35:12.722Z,43.4
2018-06-08T19:40:11.008Z,43.4
2018-06-08T19:45:08.801Z,43.8
2018-06-08T19:50:07.144Z,44.6
2018-06-08T19:55:05.493Z,44.9
2018-06-08T20:00:03.942Z,44.9
2018-06-08T20:05:02.835Z,44.7
2018-06-08T20:10:01.215Z,44.6
2018-06-08T20:14:59.213Z,44.7
2018-06-08T20:19:57.573Z,44.7
2018-06-08T20:24:55.957Z,44.8
2018-06-08T20:29:54.363Z,44.8
2018-06-08T20:34:52.859Z,44.7
2018-06-08T20:39:51.141Z,44.8
2018-06-08T20:44:49.234Z,44.9
2018-06-08T20:49:47.684Z,45
2018-06-08T20:54:46.136Z,45.1
2018-06-08T20:59:44.478Z,45.1
2018-06-08T21:04:42.537Z,45.3
2018-06-08T21:09:40.753Z,45.4
2018-06-08T21:14:39.031Z,45.5
2018-06-08T21:19:37.453Z,45.5
2018-06-08T21:24:35.639Z,45.8
2018-06-08T21:29:34.050Z,45.9
2018-06-08T21:34:31.927Z,46.1
2018-06-08T21:39:30.271Z,46.1
2018-06-08T21:44:28.719Z,46.1
2018-06-08T21:49:27.123Z,46.3
2018-06-08T21:54:25.254Z,46.4
2018-06-08T21:59:23.419Z,46.5
2018-06-08T22:04:21.687Z,46.5
2018-06-08T22:09:19.931Z,46.6
2018-06-08T22:14:18.508Z,46.7
2018-06-08T22:19:16.850Z,46.7
2018-06-08T22:24:15.329Z,46.8
2018-06-08T22:29:13.635Z,46.8
2018-06-08T22:34:11.503Z,46.8
2018-06-08T22:39:09.465Z,46.8
2018-06-08T22:44:07.275Z,46.8
2018-06-08T22:49:05.850Z,46.9
2018-06-08T22:54:03.824Z,46.9
2018-06-08T22:59:02.347Z,46.9
2018-06-08T23:04:00.776Z,47
2018-06-08T23:08:59.200Z,47
2018-06-08T23:13:57.584Z,47.1
2018-06-08T23:18:55.979Z,47.1
2018-06-08T23:23:54.243Z,47.1
2018-06-08T23:28:52.763Z,47.1
2018-06-08T23:33:51.165Z,47.3
2018-06-08T23:38:49.479Z,47.3
2018-06-08T23:43:47.756Z,47.4
2018-06-08T23:48:46.069Z,47.5
2018-06-08T23:53:44.156Z,47.5
2018-06-08T23:58:42.316Z,47.6
